Time;durP1;ratioP1;P1;durP2;ratioP2;P2;SDS_P1;SDS_P2;PMS_P1;PMS_P2;Temp;Humidity;BMP_temperature;BMP_pressure;BME280_temperature;BME280_humidity;BME280_pressure;Samples;Min_cycle;Max_cycle;Signal;HPM_P1;HPM_P2
2021/11/27 00:00:33;;;;;;;34.23;18.10;;;;;;;1.09;95.96;98253.02;1580392;87;25821;-75
2021/11/27 00:03:02;;;;;;;27.73;15.72;;;;;;;1.08;96.12;98250.08;1633069;87;26066;-78
2021/11/27 00:05:32;;;;;;;27.52;15.50;;;;;;;1.09;96.12;98253.53;1606006;87;25986;-77
2021/11/27 00:07:59;;;;;;;30.68;18.15;;;;;;;1.09;95.95;98249.58;1588656;87;25903;-75
2021/11/27 00:10:29;;;;;;;28.57;16.42;;;;;;;1.08;96.02;98247.44;1582189;87;26147;-77
2021/11/27 00:12:57;;;;;;;28.53;16.03;;;;;;;1.08;95.98;98248.76;1633558;87;25786;-78
2021/11/27 00:15:26;;;;;;;29.75;17.77;;;;;;;1.08;96.11;98242.16;1606166;87;27685;-77
2021/11/27 00:17:53;;;;;;;30.27;16.40;;;;;;;1.09;96.00;98237.72;1608682;87;25793;-77
2021/11/27 00:20:25;;;;;;;32.53;17.67;;;;;;;1.10;96.00;98236.70;1566364;87;25870;-76
2021/11/27 00:22:53;;;;;;;28.87;16.02;;;;;;;1.10;95.94;98234.89;1633048;87;26416;-77
2021/11/27 00:25:20;;;;;;;29.63;17.57;;;;;;;1.09;95.98;98237.20;1606061;87;25867;-77
2021/11/27 00:27:48;;;;;;;28.57;16.55;;;;;;;1.10;95.93;98238.84;1566611;87;28424;-77
2021/11/27 00:30:21;;;;;;;28.40;16.67;;;;;;;1.11;95.93;98238.35;1608541;87;25832;-77
2021/11/27 00:32:48;;;;;;;27.70;15.68;;;;;;;1.11;95.89;98239.14;1633117;87;25786;-77
2021/11/27 00:35:15;;;;;;;28.32;15.60;;;;;;;1.12;95.92;98243.42;1606398;87;26416;-77
2021/11/27 00:37:43;;;;;;;31.45;16.73;;;;;;;1.14;95.95;98233.52;1588504;87;25874;-76
2021/11/27 00:40:12;;;;;;;31.07;15.43;;;;;;;1.14;95.79;98224.28;1608674;87;28118;-76
2021/11/27 00:42:40;;;;;;;27.98;15.83;;;;;;;1.14;95.81;98225.61;1608735;87;25949;-78
2021/11/27 00:45:12;;;;;;;29.05;15.08;;;;;;;1.13;95.70;98218.72;1607616;87;25954;-76
2021/11/27 00:47:43;;;;;;;30.25;17.00;;;;;;;1.10;95.76;98212.48;1578327;89;26104;-78
2021/11/27 00:50:12;;;;;;;25.57;14.87;;;;;;;1.12;95.76;98213.61;1584135;89;25897;-76
2021/11/27 00:52:40;;;;;;;26.73;15.63;;;;;;;1.12;95.77;98210.48;1607158;89;28305;-77
2021/11/27 00:55:10;;;;;;;24.75;14.40;;;;;;;1.12;95.87;98205.20;1582039;89;25932;-78
2021/11/27 00:57:38;;;;;;;29.55;15.58;;;;;;;1.10;95.87;98201.94;1562855;89;25987;-77
2021/11/27 01:00:09;;;;;;;27.60;14.68;;;;;;;1.10;95.89;98203.25;1585837;89;26163;-75
2021/11/27 01:02:37;;;;;;;27.40;16.45;;;;;;;1.11;95.91;98200.13;1583546;89;26485;-76
2021/11/27 01:05:10;;;;;;;24.95;15.18;;;;;;;1.09;95.90;98191.06;1597803;89;27152;-77
2021/11/27 01:07:39;;;;;;;27.87;15.45;;;;;;;1.10;95.97;98191.39;1586277;89;25871;-77
2021/11/27 01:10:11;;;;;;;24.00;14.25;;;;;;;1.11;95.99;98185.09;1583684;89;25943;-78
2021/11/27 01:12:39;;;;;;;32.35;15.23;;;;;;;1.12;95.96;98186.75;1606826;89;26138;-77
2021/11/27 01:15:09;;;;;;;28.17;14.65;;;;;;;1.13;95.92;98179.17;1606470;89;26018;-78
2021/11/27 01:17:37;;;;;;;22.65;14.18;;;;;;;1.15;95.87;98177.66;1586219;89;27503;-77
2021/11/27 01:20:09;;;;;;;22.73;13.58;;;;;;;1.16;95.97;98181.91;1583444;89;25916;-77
2021/11/27 01:22:36;;;;;;;26.68;15.30;;;;;;;1.15;95.94;98177.66;1586806;89;25731;-77
2021/11/27 01:25:06;;;;;;;26.12;16.20;;;;;;;1.14;95.91;98172.88;1597396;89;25785;-76
2021/11/27 01:27:34;;;;;;;26.33;14.55;;;;;;;1.12;95.93;98181.48;1586096;89;25305;-75
2021/11/27 01:30:07;;;;;;;24.47;14.43;;;;;;;1.12;96.00;98175.38;1583232;89;28401;-77
2021/11/27 01:32:35;;;;;;;27.30;15.83;;;;;;;1.13;95.95;98181.80;1606826;89;25817;-77
2021/11/27 01:35:03;;;;;;;26.07;13.72;;;;;;;1.16;95.96;98180.09;1606432;89;26508;-76
2021/11/27 01:37:32;;;;;;;26.02;14.70;;;;;;;1.17;95.91;98175.65;1586183;89;26106;-77
2021/11/27 01:39:59;;;;;;;24.07;14.40;;;;;;;1.18;95.85;98173.31;1583516;89;26014;-76
2021/11/27 01:42:26;;;;;;;25.17;14.30;;;;;;;1.21;95.83;98171.63;1606787;89;27637;-77
2021/11/27 01:44:53;;;;;;;25.37;15.35;;;;;;;1.23;95.81;98165.67;1606690;89;25869;-77
2021/11/27 01:47:21;;;;;;;22.27;13.58;;;;;;;1.25;95.76;98165.80;1594156;87;25888;-76
2021/11/27 01:49:49;;;;;;;22.35;13.90;;;;;;;1.26;95.66;98167.95;1584680;87;26166;-76
2021/11/27 01:52:16;;;;;;;24.60;14.50;;;;;;;1.26;95.63;98165.31;1605276;88;25350;-77
2021/11/27 01:54:43;;;;;;;24.52;13.65;;;;;;;1.26;95.59;98167.42;1586540;88;27256;-78
2021/11/27 01:57:11;;;;;;;22.90;13.43;;;;;;;1.28;95.59;98162.77;1568783;88;25981;-77
2021/11/27 01:59:41;;;;;;;25.05;14.40;;;;;;;1.28;95.51;98161.45;1568276;88;25803;-80
2021/11/27 02:02:13;;;;;;;20.32;13.22;;;;;;;1.30;95.52;98162.11;1612603;88;26149;-77
2021/11/27 02:04:40;;;;;;;24.37;14.07;;;;;;;1.32;95.51;98157.47;1609763;88;25898;-77
2021/11/27 02:07:08;;;;;;;24.57;14.50;;;;;;;1.33;95.42;98154.30;1589510;88;27639;-77
2021/11/27 02:09:38;;;;;;;23.35;13.95;;;;;;;1.33;95.43;98150.34;1568868;88;25812;-76
2021/11/27 02:12:09;;;;;;;22.42;14.25;;;;;;;1.34;95.41;98154.14;1548621;88;25922;-77
2021/11/27 02:14:39;;;;;;;21.82;12.60;;;;;;;1.34;95.30;98148.04;1612548;88;26257;-76
2021/11/27 02:17:10;;;;;;;20.55;12.68;;;;;;;1.34;95.31;98145.41;1612372;88;26040;-75
2021/11/27 02:19:39;;;;;;;20.92;12.20;;;;;;;1.33;95.27;98144.58;1569719;88;27668;-77
2021/11/27 02:22:06;;;;;;;20.15;12.75;;;;;;;1.31;95.23;98145.77;1568485;88;26765;-77
2021/11/27 02:24:45;;;;;;;20.20;12.37;;;;;;;1.31;95.31;98144.45;1612708;88;25615;-76
2021/11/27 02:27:12;;;;;;;21.57;13.43;;;;;;;1.33;95.35;98143.75;1612886;88;26247;-76
2021/11/27 02:29:40;;;;;;;19.37;13.00;;;;;;;1.34;95.32;98142.27;1568917;88;25897;-76
2021/11/27 02:32:08;;;;;;;21.80;12.43;;;;;;;1.37;95.35;98133.14;1547022;88;28064;-77
2021/11/27 02:34:35;;;;;;;18.62;12.33;;;;;;;1.38;95.24;98137.42;1588871;88;25885;-77
2021/11/27 02:37:06;;;;;;;20.37;13.43;;;;;;;1.37;95.18;98138.41;1612719;88;25829;-76
2021/11/27 02:39:36;;;;;;;21.17;12.35;;;;;;;1.37;95.19;98132.65;1569841;88;26646;-75
2021/11/27 02:42:06;;;;;;;19.82;11.95;;;;;;;1.36;95.16;98128.89;1568893;88;26088;-78
2021/11/27 02:44:34;;;;;;;19.75;11.88;;;;;;;1.37;95.20;98135.78;1583980;88;27573;-77
2021/11/27 02:47:03;;;;;;;18.87;11.73;;;;;;;1.37;95.17;98137.92;1612417;88;25612;-76
2021/11/27 02:49:30;;;;;;;21.10;12.60;;;;;;;1.39;95.23;98134.59;1525366;90;25829;-76
2021/11/27 02:51:58;;;;;;;20.72;12.40;;;;;;;1.39;95.18;98138.55;1586735;90;26568;-76
2021/11/27 02:54:29;;;;;;;17.60;11.30;;;;;;;1.39;95.20;98138.55;1564333;90;25937;-76
2021/11/27 02:56:56;;;;;;;18.90;12.43;;;;;;;1.39;95.07;98137.75;1587807;90;28265;-77
2021/11/27 02:59:28;;;;;;;20.23;12.53;;;;;;;1.36;95.05;98140.27;1546540;90;25968;-76
2021/11/27 03:01:58;;;;;;;15.75;10.18;;;;;;;1.34;95.06;98134.36;1586556;90;25957;-77
2021/11/27 03:04:31;;;;;;;19.23;12.00;;;;;;;1.34;95.14;98130.90;1586678;90;26835;-78
2021/11/27 03:06:58;;;;;;;;;;;;;;;1.31;95.15;98136.05;1589459;90;25879;-77
2021/11/27 03:09:26;;;;;;;17.60;10.85;;;;;;;1.30;95.18;98130.47;1579276;89;28149;-77
2021/11/27 03:11:56;;;;;;;19.50;10.43;;;;;;;1.28;95.30;98136.94;1567274;90;25854;-77
2021/11/27 03:14:26;;;;;;;18.77;11.45;;;;;;;1.26;95.34;98130.50;1591640;90;25864;-76
2021/11/27 03:16:56;;;;;;;15.65;10.82;;;;;;;1.25;95.35;98134.16;1591638;90;26768;-75
2021/11/27 03:19:24;;;;;;;19.20;11.20;;;;;;;1.21;95.40;98132.91;1571586;90;25548;-77
2021/11/27 03:21:51;;;;;;;19.57;11.43;;;;;;;1.22;95.55;98129.78;1591355;90;28295;-75
2021/11/27 03:24:18;;;;;;;17.48;10.98;;;;;;;1.23;95.56;98126.13;1591470;90;25795;-76
2021/11/27 03:26:46;;;;;;;17.30;11.35;;;;;;;1.23;95.53;98131.39;1591842;90;26721;-77
2021/11/27 03:29:14;;;;;;;15.13;10.28;;;;;;;1.23;95.60;98131.39;1550999;90;25909;-78
2021/11/27 03:31:41;;;;;;;17.87;11.57;;;;;;;1.23;95.64;98132.22;1570994;90;26593;-76
2021/11/27 03:34:10;;;;;;;17.82;11.55;;;;;;;1.24;95.57;98131.72;1571127;90;27732;-76
2021/11/27 03:36:37;;;;;;;17.07;10.88;;;;;;;1.25;95.59;98135.48;1550632;90;26602;-77
2021/11/27 03:39:06;;;;;;;15.48;10.20;;;;;;;1.27;95.68;98130.83;1570722;90;25836;-75
2021/11/27 03:41:34;;;;;;;17.73;10.80;;;;;;;1.27;95.60;98132.16;1567105;90;26269;-77
2021/11/27 03:44:01;;;;;;;19.40;11.80;;;;;;;1.28;95.59;98133.77;1566938;90;25954;-76
2021/11/27 03:46:29;;;;;;;17.30;11.28;;;;;;;1.29;95.55;98135.91;1591768;90;28334;-77
2021/11/27 03:48:57;;;;;;;14.55;9.78;;;;;;;1.29;95.56;98134.09;1589074;88;25428;-78
2021/11/27 03:51:28;;;;;;;14.73;10.03;;;;;;;1.30;95.56;98133.60;1585639;88;25663;-76
2021/11/27 03:53:55;;;;;;;15.90;10.23;;;;;;;1.27;95.58;98133.47;1571240;88;26744;-76
2021/11/27 03:56:27;;;;;;;14.30;9.90;;;;;;;1.27;95.60;98144.02;1617383;88;25818;-76
2021/11/27 03:59:00;;;;;;;14.87;9.48;;;;;;;1.27;95.61;98137.92;1551270;88;27406;-76
2021/11/27 04:01:28;;;;;;;14.63;9.80;;;;;;;1.28;95.64;98135.61;1591585;88;25899;-77
2021/11/27 04:03:58;;;;;;;16.35;10.55;;;;;;;1.31;95.74;98151.04;1591874;88;25995;-76
2021/11/27 04:06:28;;;;;;;14.83;9.33;;;;;;;1.34;95.76;98154.64;1617209;88;26527;-77
2021/11/27 04:08:58;;;;;;;16.37;10.10;;;;;;;1.36;95.77;98150.81;1550766;88;25978;-78
2021/11/27 04:11:24;;;;;;;15.85;10.23;;;;;;;1.38;95.72;98158.53;1570550;88;28229;-76
2021/11/27 04:13:52;;;;;;;14.60;9.60;;;;;;;1.37;95.55;98159.02;1591771;88;25825;-78
2021/11/27 04:16:19;;;;;;;15.63;10.90;;;;;;;1.37;95.60;98158.20;1617502;88;25346;-77
2021/11/27 04:18:46;;;;;;;17.73;10.80;;;;;;;1.38;95.57;98163.80;1591806;88;26106;-76
2021/11/27 04:21:21;;;;;;;17.55;11.03;;;;;;;1.40;95.69;98168.38;1590541;88;26712;-77
2021/11/27 04:23:48;;;;;;;18.35;11.38;;;;;;;1.39;95.49;98170.72;1616427;88;27715;-76
2021/11/27 04:26:19;;;;;;;16.42;11.10;;;;;;;1.42;95.60;98169.84;1616992;88;26033;-77
2021/11/27 04:28:48;;;;;;;17.00;11.55;;;;;;;1.42;95.60;98168.52;1571862;88;25900;-75
2021/11/27 04:31:18;;;;;;;17.87;11.50;;;;;;;1.42;95.57;98169.02;1617746;88;26146;-77
2021/11/27 04:33:48;;;;;;;17.32;11.95;;;;;;;1.42;95.53;98170.33;1592263;88;25926;-77
2021/11/27 04:36:15;;;;;;;16.00;10.85;;;;;;;1.39;95.49;98164.92;1617612;88;27639;-76
2021/11/27 04:38:45;;;;;;;21.07;12.37;;;;;;;1.40;95.62;98164.42;1571398;88;26417;-77
2021/11/27 04:41:13;;;;;;;18.48;11.33;;;;;;;1.39;95.50;98180.75;1590678;88;25908;-77
2021/11/27 04:43:40;;;;;;;19.00;12.20;;;;;;;1.40;95.58;98170.53;1591970;88;26246;-75
2021/11/27 04:46:09;;;;;;;18.45;11.40;;;;;;;1.41;95.58;98172.14;1591323;88;53059;-78
2021/11/27 04:48:36;;;;;;;19.10;11.80;;;;;;;1.42;95.51;98177.75;1613029;88;28161;-77
2021/11/27 04:51:03;;;;;;;16.12;11.25;;;;;;;1.41;95.40;98176.62;1571366;88;25998;-77
2021/11/27 04:53:31;;;;;;;17.27;11.22;;;;;;;1.40;95.41;98177.61;1590691;88;26615;-77
2021/11/27 04:55:59;;;;;;;18.55;11.68;;;;;;;1.40;95.46;98183.72;1617031;88;26089;-76
2021/11/27 04:58:28;;;;;;;17.82;11.60;;;;;;;1.42;95.52;98183.52;1591398;88;25888;-77
2021/11/27 05:00:58;;;;;;;18.42;11.15;;;;;;;1.42;95.50;98180.39;1572729;88;27635;-77
2021/11/27 05:03:33;;;;;;;20.15;12.53;;;;;;;1.43;95.50;98183.32;1573311;88;25969;-77
2021/11/27 05:06:00;;;;;;;16.65;11.90;;;;;;;1.44;95.54;98187.61;1617548;88;25931;-77
2021/11/27 05:08:27;;;;;;;17.90;12.43;;;;;;;1.47;95.55;98183.78;1591479;88;26995;-77
2021/11/27 05:10:54;;;;;;;17.02;10.93;;;;;;;1.48;95.52;98187.54;1570214;88;25901;-77
2021/11/27 05:13:22;;;;;;;19.73;12.47;;;;;;;1.50;95.44;98188.66;1590920;88;27677;-76
2021/11/27 05:15:49;;;;;;;19.27;12.85;;;;;;;1.53;95.47;98184.34;1591643;88;25836;-76
2021/11/27 05:18:16;;;;;;;16.25;11.10;;;;;;;1.54;95.46;98189.91;1591596;88;25876;-78
2021/11/27 05:21:03;;;;;;;17.80;12.18;;;;;;;1.55;95.41;98192.88;1578396;88;26846;-76
2021/11/27 05:23:30;;;;;;;18.25;12.13;;;;;;;1.56;95.43;98201.13;1585438;88;25373;-77
2021/11/27 05:25:59;;;;;;;18.37;12.55;;;;;;;1.57;95.33;98201.42;1591202;88;27634;-76
2021/11/27 05:28:44;;;;;;;20.25;13.13;;;;;;;1.55;95.27;98208.22;1590999;88;25828;-76
2021/11/27 05:31:23;;;;;;;19.70;12.20;;;;;;;1.54;95.29;98206.57;1572294;88;26122;-76
2021/11/27 05:34:31;;;;;;;20.20;13.65;;;;;;;1.52;95.22;98216.50;1571882;88;26101;-76
2021/11/27 05:36:25;;;;;;;21.17;13.28;;;;;;;1.51;95.33;98214.88;1610693;88;26363;-76
2021/11/27 05:38:53;;;;;;;20.55;12.85;;;;;;;1.51;95.29;98219.33;1590644;88;27507;-76
2021/11/27 05:41:21;;;;;;;22.60;14.25;;;;;;;1.52;95.43;98216.98;1570125;88;25899;-75
2021/11/27 05:43:49;;;;;;;23.65;14.50;;;;;;;1.53;95.42;98218.14;1617308;88;25950;-76
2021/11/27 05:46:16;;;;;;;21.73;13.48;;;;;;;1.54;95.37;98222.89;1617203;88;26000;-77
2021/11/27 05:48:44;;;;;;;24.40;15.15;;;;;;;1.53;95.32;98223.91;1576703;89;25940;-76
2021/11/27 05:51:26;;;;;;;25.05;15.72;;;;;;;1.51;95.40;98230.70;1530260;90;27459;-77
2021/11/27 05:53:53;;;;;;;27.50;16.27;;;;;;;1.54;95.42;98232.13;1590227;90;25359;-76
2021/11/27 05:56:21;;;;;;;29.05;16.67;;;;;;;1.52;95.33;98238.92;1601285;89;26017;-77
2021/11/27 05:58:48;;;;;;;27.75;16.90;;;;;;;1.53;95.36;98245.84;1546190;90;26668;-77
2021/11/27 06:01:15;;;;;;;39.40;23.52;;;;;;;1.53;95.44;98247.16;1524981;90;25920;-75
2021/11/27 06:03:42;;;;;;;57.93;33.85;;;;;;;1.53;95.41;98256.89;1586404;90;27549;-77
2021/11/27 06:06:09;;;;;;;32.93;19.95;;;;;;;1.52;95.43;98256.56;1601253;88;25902;-77
2021/11/27 06:08:36;;;;;;;30.82;19.73;;;;;;;1.52;95.56;98257.38;1561762;90;25925;-78
2021/11/27 06:11:03;;;;;;;30.68;17.65;;;;;;;1.53;95.47;98268.77;1576813;89;26046;-76
2021/11/27 06:13:30;;;;;;;36.23;22.32;;;;;;;1.51;95.47;98268.95;1558609;89;26617;-78
2021/11/27 06:15:57;;;;;;;27.65;18.17;;;;;;;1.50;95.49;98273.08;1564958;91;27632;-76
2021/11/27 06:18:24;;;;;;;28.60;17.73;;;;;;;1.49;95.54;98280.20;1578326;89;25939;-76
2021/11/27 06:20:51;;;;;;;34.80;20.97;;;;;;;1.49;95.60;98283.33;1524991;90;26463;-76
2021/11/27 06:23:18;;;;;;;36.28;21.48;;;;;;;1.47;95.69;98290.12;1586122;90;26204;-76
2021/11/27 06:25:45;;;;;;;36.45;20.30;;;;;;;1.45;95.74;98292.63;1565488;90;26050;-77
2021/11/27 06:28:13;;;;;;;33.25;20.35;;;;;;;1.43;95.77;98291.47;1538570;89;27617;-77
2021/11/27 06:30:41;;;;;;;34.43;21.95;;;;;;;1.42;95.94;98296.94;1540606;90;25965;-76
2021/11/27 06:33:08;;;;;;;48.17;29.80;;;;;;;1.42;95.89;98310.95;1590318;90;25785;-77
2021/11/27 06:35:35;;;;;;;35.23;20.30;;;;;;;1.44;95.96;98312.08;1601383;89;26872;-76
2021/11/27 06:38:02;;;;;;;26.30;17.05;;;;;;;1.44;95.95;98316.86;1545701;90;25963;-76
2021/11/27 06:40:30;;;;;;;32.75;20.37;;;;;;;1.44;95.99;98318.66;1545916;90;27495;-74
2021/11/27 06:43:05;;;;;;;27.22;16.15;;;;;;;1.44;95.97;98322.13;1550214;90;25942;-76
2021/11/27 06:45:52;;;;;;;29.57;17.92;;;;;;;1.46;95.99;98329.36;1547184;90;25537;-76
2021/11/27 06:48:20;;;;;;;27.75;16.48;;;;;;;1.48;96.05;98327.34;1553788;90;26824;-76
2021/11/27 06:50:47;;;;;;;29.98;17.92;;;;;;;1.49;95.98;98332.95;1568109;88;25813;-76
2021/11/27 06:53:14;;;;;;;43.98;26.90;;;;;;;1.50;96.00;98337.22;1588987;88;27782;-76
2021/11/27 06:55:42;;;;;;;34.48;21.27;;;;;;;1.49;95.95;98335.59;1588847;88;25830;-76
2021/11/27 06:58:09;;;;;;;31.52;18.65;;;;;;;1.50;95.91;98348.27;1563910;88;25937;-76
2021/11/27 07:00:36;;;;;;;37.98;21.65;;;;;;;1.51;96.01;98349.42;1543419;88;27108;-76
2021/11/27 07:03:21;;;;;;;35.33;21.73;;;;;;;1.52;95.95;98352.84;1612589;88;25827;-76
2021/11/27 07:06:07;;;;;;;38.05;19.90;;;;;;;1.53;95.97;98366.38;1612198;88;27475;-76
2021/11/27 07:08:35;;;;;;;35.00;20.12;;;;;;;1.52;96.03;98371.31;1549010;88;25890;-76
2021/11/27 07:11:07;;;;;;;71.05;35.83;;;;;;;1.52;96.04;98377.91;1564386;88;25869;-76
2021/11/27 07:13:34;;;;;;;49.45;27.50;;;;;;;1.54;96.06;98382.50;1612517;88;26547;-74
2021/11/27 07:16:01;;;;;;;66.28;40.55;;;;;;;1.54;96.02;98386.46;1612449;88;25898;-75
2021/11/27 07:18:28;;;;;;;41.75;25.12;;;;;;;1.53;96.03;98395.39;1563131;88;27527;-75
2021/11/27 07:20:56;;;;;;;52.38;28.55;;;;;;;1.51;96.21;98396.91;1572084;87;25830;-76
2021/11/27 07:23:23;;;;;;;47.20;26.48;;;;;;;1.50;96.35;98408.44;1617306;88;26436;-76
2021/11/27 07:25:50;;;;;;;54.15;32.05;;;;;;;1.53;96.48;98401.98;1616855;88;26583;-77
2021/11/27 07:28:19;;;;;;;69.95;39.05;;;;;;;1.52;96.37;98407.75;1540492;88;26038;-77
2021/11/27 07:30:46;;;;;;;53.52;29.60;;;;;;;1.54;96.25;98416.30;1590451;88;26864;-77
2021/11/27 07:33:13;;;;;;;64.45;37.03;;;;;;;1.56;96.30;98413.51;1617058;88;26529;-76
2021/11/27 07:35:40;;;;;;;64.62;38.65;;;;;;;1.55;96.19;98410.05;1617147;88;25754;-76
2021/11/27 07:38:07;;;;;;;64.65;39.30;;;;;;;1.55;96.23;98403.94;1551511;88;26311;-76
2021/11/27 07:40:34;;;;;;;53.35;33.40;;;;;;;1.57;96.25;98407.21;1550840;88;25873;-76
2021/11/27 07:43:05;;;;;;;52.75;28.45;;;;;;;1.58;96.28;98403.06;1617717;88;27468;-76
2021/11/27 07:45:35;;;;;;;49.45;26.60;;;;;;;1.59;96.30;98397.30;1616909;88;26482;-77
2021/11/27 07:48:21;;;;;;;54.65;31.37;;;;;;;1.63;96.27;98403.84;1568551;90;25897;-76
2021/11/27 07:51:07;;;;;;;50.65;28.77;;;;;;;1.65;96.28;98408.95;1552571;90;26042;-76
2021/11/27 07:53:41;;;;;;;50.55;28.27;;;;;;;1.68;96.27;98409.89;1567842;87;25908;-76
2021/11/27 07:56:08;;;;;;;52.83;28.80;;;;;;;1.70;96.22;98410.52;1611520;87;28648;-78
2021/11/27 07:58:35;;;;;;;51.63;27.25;;;;;;;1.72;96.20;98417.25;1560843;87;26551;-77
2021/11/27 08:01:03;;;;;;;47.30;24.87;;;;;;;1.74;96.13;98421.84;1610661;87;26033;-77
2021/11/27 08:03:30;;;;;;;52.17;26.87;;;;;;;1.76;96.13;98418.52;1604242;88;26777;-77
2021/11/27 08:05:58;;;;;;;59.25;30.35;;;;;;;1.76;95.96;98422.48;1604929;89;25769;-77
2021/11/27 08:08:25;;;;;;;50.30;25.70;;;;;;;1.76;96.07;98427.77;1562106;89;26915;-77
2021/11/27 08:10:53;;;;;;;51.63;28.52;;;;;;;1.78;95.95;98415.69;1542882;89;25839;-78
2021/11/27 08:13:20;;;;;;;48.95;27.32;;;;;;;1.78;95.93;98421.80;1604841;89;26196;-78
2021/11/27 08:15:47;;;;;;;55.67;28.57;;;;;;;1.79;95.99;98431.86;1605134;89;26864;-78
2021/11/27 08:18:14;;;;;;;53.63;28.25;;;;;;;1.78;95.99;98432.35;1562901;89;25336;-78
2021/11/27 08:20:41;;;;;;;59.27;31.45;;;;;;;1.78;95.97;98433.67;1583309;89;28006;-78
2021/11/27 08:23:08;;;;;;;52.30;26.68;;;;;;;1.81;96.09;98443.88;1604929;89;25868;-78
2021/11/27 08:25:39;;;;;;;48.52;26.33;;;;;;;1.83;96.10;98450.28;1604866;89;26432;-78
2021/11/27 08:28:06;;;;;;;48.20;25.20;;;;;;;1.81;95.97;98450.47;1543130;89;26756;-77
2021/11/27 08:30:33;;;;;;;57.08;28.47;;;;;;;1.80;96.01;98451.95;1542865;89;26006;-79
2021/11/27 08:33:00;;;;;;;47.13;25.12;;;;;;;1.79;96.00;98455.12;1583477;89;28211;-80
2021/11/27 08:35:27;;;;;;;55.92;28.27;;;;;;;1.80;96.13;98462.02;1605345;89;25845;-78
2021/11/27 08:37:54;;;;;;;53.48;27.77;;;;;;;1.82;96.10;98469.25;1562911;89;26644;-78
2021/11/27 08:40:21;;;;;;;57.53;29.30;;;;;;;1.83;96.17;98476.18;1543114;89;26058;-77
2021/11/27 08:42:48;;;;;;;58.30;29.37;;;;;;;1.84;96.18;98477.80;1605118;89;25833;-78
2021/11/27 08:45:17;;;;;;;57.03;28.92;;;;;;;1.83;96.16;98474.03;1605016;89;28352;-78
2021/11/27 08:47:44;;;;;;;61.75;31.33;;;;;;;1.82;96.12;98469.77;1544509;87;26066;-78
2021/11/27 08:50:13;;;;;;;59.40;30.02;;;;;;;1.82;96.24;98463.17;1588991;87;26089;-77
2021/11/27 08:52:40;;;;;;;59.15;29.77;;;;;;;1.84;96.19;98465.12;1633712;87;26807;-78
2021/11/27 08:55:08;;;;;;;61.33;28.98;;;;;;;1.86;96.13;98465.77;1633710;87;25612;-78
2021/11/27 08:57:35;;;;;;;56.37;29.40;;;;;;;1.86;96.14;98469.20;1590772;87;27579;-78
2021/11/27 09:00:05;;;;;;;73.97;33.20;;;;;;;1.85;96.12;98478.63;1556551;87;25910;-78
2021/11/27 09:02:32;;;;;;;69.00;32.20;;;;;;;1.85;96.19;98479.95;1633640;87;25959;-78
2021/11/27 09:04:59;;;;;;;61.08;29.55;;;;;;;1.85;96.24;98476.81;1611413;87;26766;-78
2021/11/27 09:07:26;;;;;;;65.50;31.70;;;;;;;1.85;96.28;98476.81;1590720;87;26753;-78
2021/11/27 09:09:53;;;;;;;71.72;35.20;;;;;;;1.85;96.29;98480.78;1556479;87;28427;-79
2021/11/27 09:12:21;;;;;;;75.78;35.92;;;;;;;1.83;96.29;98484.09;1591213;87;26625;-78
2021/11/27 09:14:51;;;;;;;73.33;34.35;;;;;;;1.83;96.30;98481.46;1591019;87;25804;-78
2021/11/27 09:17:19;;;;;;;74.30;34.70;;;;;;;1.85;96.40;98483.91;1613515;87;26142;-78
2021/11/27 09:19:46;;;;;;;73.87;34.03;;;;;;;1.86;96.37;98487.67;1633829;87;26620;-79
2021/11/27 09:22:14;;;;;;;72.32;34.95;;;;;;;1.89;96.41;98486.50;1571734;87;27374;-78
2021/11/27 09:24:41;;;;;;;66.80;32.67;;;;;;;1.89;96.33;98492.60;1590130;87;26147;-79
2021/11/27 09:27:08;;;;;;;74.37;35.03;;;;;;;1.90;96.34;98495.58;1588983;87;25821;-79
2021/11/27 09:29:38;;;;;;;70.37;32.23;;;;;;;1.92;96.54;98496.70;1633792;87;26085;-79
2021/11/27 09:32:04;;;;;;;75.78;33.55;;;;;;;1.92;96.41;98501.48;1611092;87;25804;-79
2021/11/27 09:34:31;;;;;;;71.20;35.40;;;;;;;1.92;96.29;98508.09;1590873;87;27502;-79
2021/11/27 09:37:00;;;;;;;67.25;32.08;;;;;;;1.93;96.40;98504.43;1589347;87;25871;-78
2021/11/27 09:39:27;;;;;;;66.77;32.05;;;;;;;1.94;96.38;98517.97;1633784;87;26015;-79
2021/11/27 09:41:57;;;;;;;71.37;34.18;;;;;;;1.93;96.39;98518.95;1610906;87;26726;-78
2021/11/27 09:44:24;;;;;;;69.62;32.85;;;;;;;1.96;96.42;98519.09;1566969;87;25935;-79
2021/11/27 09:46:51;;;;;;;75.97;34.63;;;;;;;1.96;96.37;98516.45;1589144;87;27561;-78
2021/11/27 09:49:21;;;;;;;71.47;32.78;;;;;;;1.96;96.40;98519.92;1608404;87;25838;-79
2021/11/27 09:51:52;;;;;;;70.62;31.40;;;;;;;1.99;96.53;98520.86;1570366;89;26508;-79
2021/11/27 09:54:22;;;;;;;78.35;37.65;;;;;;;2.01;96.49;98524.66;1547329;89;26238;-79
2021/11/27 09:56:52;;;;;;;80.93;40.23;;;;;;;2.00;96.41;98530.92;1571541;89;26577;-78
2021/11/27 09:59:20;;;;;;;71.62;34.65;;;;;;;1.99;96.46;98524.81;1594610;88;27567;-81
2021/11/27 10:01:53;;;;;;;72.40;35.88;;;;;;;1.98;96.41;98525.01;1590645;88;25892;-78
2021/11/27 10:04:23;;;;;;;66.42;33.13;;;;;;;1.98;96.43;98529.80;1580611;89;25883;-81
2021/11/27 10:06:51;;;;;;;78.85;39.90;;;;;;;1.99;96.59;98526.66;1580614;89;26778;-78
2021/11/27 10:09:22;;;;;;;90.87;44.20;;;;;;;1.96;96.56;98531.80;1594367;89;25317;-79
2021/11/27 10:11:51;;;;;;;69.47;33.42;;;;;;;1.96;96.56;98539.72;1590627;89;27959;-78
2021/11/27 10:14:20;;;;;;;71.10;35.88;;;;;;;1.96;96.78;98550.28;1571611;89;25947;-78
2021/11/27 10:17:04;;;;;;;72.03;34.83;;;;;;;1.92;96.61;98554.29;1590705;89;25847;-79
2021/11/27 10:19:51;;;;;;;77.32;34.65;;;;;;;1.92;96.78;98547.69;1594425;89;26116;-78
2021/11/27 10:22:22;;;;;;;73.75;33.53;;;;;;;1.90;96.79;98554.97;1590923;89;25833;-79
2021/11/27 10:24:50;;;;;;;69.32;28.42;;;;;;;1.90;96.88;98552.83;1591219;89;27550;-79
2021/11/27 10:27:28;;;;;;;64.50;29.82;;;;;;;1.90;97.09;98559.42;1571604;89;25866;-80
2021/11/27 10:30:07;;;;;;;96.95;45.67;;;;;;;1.90;97.01;98558.11;1594344;89;25900;-79
2021/11/27 10:32:39;;;;;;;87.97;44.25;;;;;;;1.89;97.07;98560.41;1590212;89;26065;-79
2021/11/27 10:35:17;;;;;;;124.25;55.75;;;;;;;1.90;97.32;98574.77;1571508;89;25795;-77
2021/11/27 10:37:50;;;;;;;177.75;79.45;;;;;;;1.92;97.33;98568.81;1570997;89;28165;-77
2021/11/27 10:40:21;;;;;;;102.32;50.80;;;;;;;1.92;97.28;98574.58;1594284;89;26047;-78
2021/11/27 10:42:52;;;;;;;84.52;43.83;;;;;;;1.92;97.30;98577.22;1604268;88;25772;-77
2021/11/27 10:45:24;;;;;;;;;;;;;;;1.92;97.19;98579.37;1564497;90;26282;-78
2021/11/27 10:48:10;;;;;;;88.80;41.48;;;;;;;1.91;97.26;98582.99;1629609;87;25835;-78
2021/11/27 10:50:42;;;;;;;90.42;41.85;;;;;;;1.92;97.44;98581.18;1610834;88;27494;-77
2021/11/27 10:53:13;;;;;;;76.97;39.03;;;;;;;1.92;97.42;98578.54;1597998;88;25847;-78
2021/11/27 10:55:41;;;;;;;86.32;40.95;;;;;;;1.93;97.50;98574.88;1619460;88;25867;-79
2021/11/27 10:58:11;;;;;;;82.25;34.10;;;;;;;1.94;97.48;98587.92;1598362;88;26145;-78
2021/11/27 11:00:48;;;;;;;84.47;41.00;;;;;;;1.99;97.63;98584.75;1612490;88;25813;-77
2021/11/27 11:03:35;;;;;;;79.00;35.40;;;;;;;2.02;97.47;98576.44;1596872;88;27360;-77
2021/11/27 11:06:25;;;;;;;101.22;43.17;;;;;;;2.04;97.53;98576.59;1618992;88;25868;-77
2021/11/27 11:08:58;;;;;;;85.67;39.00;;;;;;;2.08;97.45;98576.54;1612304;88;26567;-79
2021/11/27 11:11:28;;;;;;;66.72;32.78;;;;;;;2.16;97.65;98568.52;1609572;89;26952;-78
2021/11/27 11:14:01;;;;;;;84.65;42.75;;;;;;;2.23;97.61;98575.20;1564726;88;26055;-78
2021/11/27 11:16:32;;;;;;;50.60;24.45;;;;;;;2.27;97.35;98583.08;1582441;88;27527;-78
2021/11/27 11:19:21;;;;;;;;;;;;;;;2.34;97.27;98587.47;1608605;88;25917;-78
2021/11/27 11:22:16;;;;;;;47.25;21.73;;;;;;;2.32;96.94;98592.61;1605658;88;25790;-78
2021/11/27 11:24:45;;;;;;;62.27;27.07;;;;;;;2.33;97.00;98597.70;1586885;88;26166;-78
2021/11/27 11:27:35;;;;;;;73.17;35.03;;;;;;;2.32;96.90;98607.97;1584298;88;25887;-78
2021/11/27 11:30:05;;;;;;;106.92;47.27;;;;;;;2.33;96.83;98615.39;1626587;88;28811;-77
2021/11/27 11:32:32;;;;;;;113.13;49.63;;;;;;;2.32;96.83;98609.28;1605996;88;25872;-77
2021/11/27 11:35:01;;;;;;;61.80;29.55;;;;;;;2.34;96.72;98612.56;1585243;88;25799;-78
2021/11/27 11:37:29;;;;;;;57.45;29.87;;;;;;;2.32;96.59;98606.64;1584094;88;26853;-78